Terminal Aerodrome Forecast
Issued by NWS

Home | Current Version | Previous Version | Text Only | Print | Product List | Glossary On
Versions: 1 2 3 4 5 6 7 8 9 10 11 12 13 14 15 16 17 18 19 20 21 22 23 24 25 26 27 28
000
FTUS45 KGJT 211120
TAFTEX
TAF
KTEX 211120Z 2112/2212 08006KT P6SM BKN050 OVC080
     FM211400 14004KT P6SM VCSH OVC060
     FM211800 24008KT P6SM -SHRA OVC050
     FM220000 VRB03KT P6SM OVC120
     FM220700 VRB03KT P6SM BKN200=

USA.gov is the U.S. government's official web portal to all federal, state and local government web resources and services.